sensor_id;sensor_type;location;lat;lon;timestamp;P1;durP1;ratioP1;P2;durP2;ratioP2
74614;SDS011;63121;51.458;-0.110;2023-05-01T00:01:26;16.15;;;7.03;;
74614;SDS011;63121;51.458;-0.110;2023-05-01T00:03:52;14.40;;;6.50;;
74614;SDS011;63121;51.458;-0.110;2023-05-01T00:06:20;15.23;;;6.70;;
74614;SDS011;63121;51.458;-0.110;2023-05-01T00:08:52;15.10;;;6.80;;
74614;SDS011;63121;51.458;-0.110;2023-05-01T00:11:20;13.85;;;6.65;;
74614;SDS011;63121;51.458;-0.110;2023-05-01T00:13:49;17.25;;;6.93;;
74614;SDS011;63121;51.458;-0.110;2023-05-01T00:16:15;14.65;;;6.93;;
74614;SDS011;63121;51.458;-0.110;2023-05-01T00:18:41;14.43;;;6.80;;
74614;SDS011;63121;51.458;-0.110;2023-05-01T00:21:07;14.50;;;6.80;;
74614;SDS011;63121;51.458;-0.110;2023-05-01T00:24:37;14.30;;;6.57;;
74614;SDS011;63121;51.458;-0.110;2023-05-01T00:26:49;14.57;;;6.68;;
74614;SDS011;63121;51.458;-0.110;2023-05-01T00:29:15;14.60;;;6.88;;
74614;SDS011;63121;51.458;-0.110;2023-05-01T00:31:41;15.88;;;7.00;;
74614;SDS011;63121;51.458;-0.110;2023-05-01T00:34:07;17.90;;;7.68;;
74614;SDS011;63121;51.458;-0.110;2023-05-01T00:39:48;17.40;;;7.28;;
74614;SDS011;63121;51.458;-0.110;2023-05-01T00:42:23;21.70;;;8.02;;
74614;SDS011;63121;51.458;-0.110;2023-05-01T00:44:52;15.77;;;7.68;;
74614;SDS011;63121;51.458;-0.110;2023-05-01T00:47:20;15.25;;;6.95;;
74614;SDS011;63121;51.458;-0.110;2023-05-01T00:49:46;18.20;;;7.68;;
74614;SDS011;63121;51.458;-0.110;2023-05-01T00:52:22;17.42;;;7.72;;
74614;SDS011;63121;51.458;-0.110;2023-05-01T00:54:48;16.90;;;7.10;;
74614;SDS011;63121;51.458;-0.110;2023-05-01T00:57:17;16.13;;;7.68;;
74614;SDS011;63121;51.458;-0.110;2023-05-01T00:59:46;15.43;;;7.32;;
74614;SDS011;63121;51.458;-0.110;2023-05-01T01:02:22;17.23;;;7.13;;
74614;SDS011;63121;51.458;-0.110;2023-05-01T01:04:48;18.27;;;8.00;;
74614;SDS011;63121;51.458;-0.110;2023-05-01T01:10:03;15.57;;;7.22;;
74614;SDS011;63121;51.458;-0.110;2023-05-01T01:15:43;18.67;;;7.95;;
74614;SDS011;63121;51.458;-0.110;2023-05-01T01:21:37;15.25;;;8.00;;
74614;SDS011;63121;51.458;-0.110;2023-05-01T01:24:20;18.27;;;8.85;;
74614;SDS011;63121;51.458;-0.110;2023-05-01T01:32:55;15.05;;;7.13;;
74614;SDS011;63121;51.458;-0.110;2023-05-01T01:35:53;18.30;;;7.95;;
74614;SDS011;63121;51.458;-0.110;2023-05-01T01:38:23;17.27;;;8.07;;
74614;SDS011;63121;51.458;-0.110;2023-05-01T01:43:36;23.23;;;9.18;;
74614;SDS011;63121;51.458;-0.110;2023-05-01T01:49:05;19.23;;;8.23;;
74614;SDS011;63121;51.458;-0.110;2023-05-01T01:51:43;19.45;;;8.55;;
74614;SDS011;63121;51.458;-0.110;2023-05-01T01:54:34;17.88;;;8.32;;
74614;SDS011;63121;51.458;-0.110;2023-05-01T01:57:03;17.80;;;8.90;;
74614;SDS011;63121;51.458;-0.110;2023-05-01T01:59:46;18.10;;;8.10;;
74614;SDS011;63121;51.458;-0.110;2023-05-01T02:02:31;22.33;;;9.27;;
74614;SDS011;63121;51.458;-0.110;2023-05-01T02:04:59;19.00;;;9.15;;
74614;SDS011;63121;51.458;-0.110;2023-05-01T02:07:38;18.65;;;8.80;;
74614;SDS011;63121;51.458;-0.110;2023-05-01T02:10:12;21.40;;;9.05;;
74614;SDS011;63121;51.458;-0.110;2023-05-01T02:12:39;21.13;;;9.27;;
74614;SDS011;63121;51.458;-0.110;2023-05-01T02:18:17;20.05;;;8.93;;
74614;SDS011;63121;51.458;-0.110;2023-05-01T02:24:13;22.10;;;10.55;;
74614;SDS011;63121;51.458;-0.110;2023-05-01T02:27:02;21.90;;;9.68;;
74614;SDS011;63121;51.458;-0.110;2023-05-01T02:30:22;24.80;;;10.23;;
74614;SDS011;63121;51.458;-0.110;2023-05-01T02:33:06;19.83;;;9.25;;
74614;SDS011;63121;51.458;-0.110;2023-05-01T02:35:39;17.90;;;8.68;;
74614;SDS011;63121;51.458;-0.110;2023-05-01T02:38:11;21.85;;;9.10;;
74614;SDS011;63121;51.458;-0.110;2023-05-01T02:43:37;19.90;;;9.43;;
74614;SDS011;63121;51.458;-0.110;2023-05-01T02:46:05;19.10;;;8.88;;
74614;SDS011;63121;51.458;-0.110;2023-05-01T02:48:37;17.88;;;9.23;;
74614;SDS011;63121;51.458;-0.110;2023-05-01T02:51:15;20.45;;;9.13;;
74614;SDS011;63121;51.458;-0.110;2023-05-01T02:57:08;20.88;;;9.15;;
74614;SDS011;63121;51.458;-0.110;2023-05-01T02:59:39;22.02;;;9.80;;
74614;SDS011;63121;51.458;-0.110;2023-05-01T03:02:05;18.92;;;9.00;;
74614;SDS011;63121;51.458;-0.110;2023-05-01T03:04:35;23.67;;;9.50;;
74614;SDS011;63121;51.458;-0.110;2023-05-01T03:11:06;19.98;;;9.25;;
74614;SDS011;63121;51.458;-0.110;2023-05-01T03:14:08;20.08;;;8.82;;
74614;SDS011;63121;51.458;-0.110;2023-05-01T03:17:02;19.60;;;8.88;;
74614;SDS011;63121;51.458;-0.110;2023-05-01T03:19:35;19.65;;;9.10;;
74614;SDS011;63121;51.458;-0.110;2023-05-01T03:22:06;21.80;;;9.05;;
74614;SDS011;63121;51.458;-0.110;2023-05-01T03:25:00;20.75;;;8.65;;
74614;SDS011;63121;51.458;-0.110;2023-05-01T03:28:17;18.83;;;8.50;;
74614;SDS011;63121;51.458;-0.110;2023-05-01T03:31:04;18.38;;;8.57;;
74614;SDS011;63121;51.458;-0.110;2023-05-01T03:33:41;17.48;;;8.18;;
74614;SDS011;63121;51.458;-0.110;2023-05-01T03:36:10;19.70;;;8.70;;
74614;SDS011;63121;51.458;-0.110;2023-05-01T03:38:46;19.88;;;9.07;;
74614;SDS011;63121;51.458;-0.110;2023-05-01T03:41:30;21.95;;;9.07;;
74614;SDS011;63121;51.458;-0.110;2023-05-01T03:44:04;20.80;;;9.43;;
74614;SDS011;63121;51.458;-0.110;2023-05-01T03:46:39;21.75;;;8.63;;
74614;SDS011;63121;51.458;-0.110;2023-05-01T03:49:25;20.50;;;8.95;;
74614;SDS011;63121;51.458;-0.110;2023-05-01T03:51:56;21.58;;;8.85;;
74614;SDS011;63121;51.458;-0.110;2023-05-01T03:54:42;19.52;;;8.70;;
74614;SDS011;63121;51.458;-0.110;2023-05-01T03:57:15;21.52;;;9.88;;
74614;SDS011;63121;51.458;-0.110;2023-05-01T03:59:43;19.60;;;8.23;;
74614;SDS011;63121;51.458;-0.110;2023-05-01T04:02:47;18.95;;;8.50;;
74614;SDS011;63121;51.458;-0.110;2023-05-01T04:08:21;19.35;;;8.85;;
74614;SDS011;63121;51.458;-0.110;2023-05-01T04:10:55;19.85;;;8.98;;
74614;SDS011;63121;51.458;-0.110;2023-05-01T04:13:21;20.88;;;8.65;;
74614;SDS011;63121;51.458;-0.110;2023-05-01T04:16:08;16.33;;;7.50;;
74614;SDS011;63121;51.458;-0.110;2023-05-01T04:18:37;16.58;;;7.07;;
74614;SDS011;63121;51.458;-0.110;2023-05-01T04:21:03;18.77;;;7.30;;
74614;SDS011;63121;51.458;-0.110;2023-05-01T04:27:42;18.15;;;6.47;;
74614;SDS011;63121;51.458;-0.110;2023-05-01T04:30:08;15.70;;;6.05;;
74614;SDS011;63121;51.458;-0.110;2023-05-01T04:32:37;15.07;;;5.60;;
74614;SDS011;63121;51.458;-0.110;2023-05-01T04:35:16;16.92;;;5.80;;
74614;SDS011;63121;51.458;-0.110;2023-05-01T04:38:06;17.08;;;5.72;;
74614;SDS011;63121;51.458;-0.110;2023-05-01T04:40:52;12.93;;;5.20;;
74614;SDS011;63121;51.458;-0.110;2023-05-01T04:43:21;17.52;;;5.53;;
74614;SDS011;63121;51.458;-0.110;2023-05-01T04:45:52;16.00;;;5.28;;
74614;SDS011;63121;51.458;-0.110;2023-05-01T04:48:21;10.45;;;4.45;;
74614;SDS011;63121;51.458;-0.110;2023-05-01T04:50:47;13.10;;;4.10;;
74614;SDS011;63121;51.458;-0.110;2023-05-01T04:53:16;12.20;;;4.03;;
74614;SDS011;63121;51.458;-0.110;2023-05-01T04:55:45;10.57;;;3.22;;
74614;SDS011;63121;51.458;-0.110;2023-05-01T04:58:19;11.60;;;3.25;;
74614;SDS011;63121;51.458;-0.110;2023-05-01T05:00:45;11.10;;;3.10;;
74614;SDS011;63121;51.458;-0.110;2023-05-01T05:03:13;9.45;;;3.00;;
74614;SDS011;63121;51.458;-0.110;2023-05-01T05:05:46;9.88;;;3.22;;
74614;SDS011;63121;51.458;-0.110;2023-05-01T05:08:18;11.55;;;3.00;;
74614;SDS011;63121;51.458;-0.110;2023-05-01T05:10:56;10.20;;;2.90;;
74614;SDS011;63121;51.458;-0.110;2023-05-01T05:14:24;11.80;;;3.38;;
74614;SDS011;63121;51.458;-0.110;2023-05-01T05:17:31;8.07;;;2.45;;
74614;SDS011;63121;51.458;-0.110;2023-05-01T05:20:00;10.07;;;2.38;;
74614;SDS011;63121;51.458;-0.110;2023-05-01T05:22:26;9.15;;;2.40;;
74614;SDS011;63121;51.458;-0.110;2023-05-01T05:24:54;8.88;;;2.55;;
74614;SDS011;63121;51.458;-0.110;2023-05-01T05:27:30;11.25;;;2.70;;
74614;SDS011;63121;51.458;-0.110;2023-05-01T05:30:05;8.38;;;2.05;;
74614;SDS011;63121;51.458;-0.110;2023-05-01T05:32:37;9.38;;;2.50;;
74614;SDS011;63121;51.458;-0.110;2023-05-01T05:35:06;8.50;;;2.35;;
74614;SDS011;63121;51.458;-0.110;2023-05-01T05:37:32;8.60;;;2.08;;
74614;SDS011;63121;51.458;-0.110;2023-05-01T05:39:58;8.88;;;2.40;;
74614;SDS011;63121;51.458;-0.110;2023-05-01T05:42:24;10.63;;;2.40;;
74614;SDS011;63121;51.458;-0.110;2023-05-01T05:44:50;10.48;;;2.00;;
74614;SDS011;63121;51.458;-0.110;2023-05-01T05:47:19;10.73;;;2.45;;
74614;SDS011;63121;51.458;-0.110;2023-05-01T05:49:46;10.10;;;2.25;;
74614;SDS011;63121;51.458;-0.110;2023-05-01T05:52:14;6.78;;;1.77;;
74614;SDS011;63121;51.458;-0.110;2023-05-01T05:54:40;8.40;;;2.08;;
74614;SDS011;63121;51.458;-0.110;2023-05-01T05:57:06;6.93;;;1.92;;
74614;SDS011;63121;51.458;-0.110;2023-05-01T05:59:31;9.30;;;2.22;;
74614;SDS011;63121;51.458;-0.110;2023-05-01T06:02:17;9.00;;;2.40;;
74614;SDS011;63121;51.458;-0.110;2023-05-01T06:04:43;8.52;;;2.35;;
74614;SDS011;63121;51.458;-0.110;2023-05-01T06:07:11;11.20;;;2.75;;
74614;SDS011;63121;51.458;-0.110;2023-05-01T06:09:52;10.00;;;2.40;;
74614;SDS011;63121;51.458;-0.110;2023-05-01T06:12:25;10.23;;;2.38;;
74614;SDS011;63121;51.458;-0.110;2023-05-01T06:15:17;9.25;;;2.35;;
74614;SDS011;63121;51.458;-0.110;2023-05-01T06:17:43;9.48;;;2.72;;
74614;SDS011;63121;51.458;-0.110;2023-05-01T06:20:09;10.82;;;2.58;;
74614;SDS011;63121;51.458;-0.110;2023-05-01T06:22:50;11.40;;;2.60;;
74614;SDS011;63121;51.458;-0.110;2023-05-01T06:25:22;13.18;;;3.30;;
74614;SDS011;63121;51.458;-0.110;2023-05-01T06:28:02;11.27;;;2.50;;
74614;SDS011;63121;51.458;-0.110;2023-05-01T06:30:30;9.23;;;2.30;;
74614;SDS011;63121;51.458;-0.110;2023-05-01T06:32:56;8.98;;;2.38;;
74614;SDS011;63121;51.458;-0.110;2023-05-01T06:35:22;7.45;;;2.58;;
74614;SDS011;63121;51.458;-0.110;2023-05-01T06:37:57;10.20;;;2.78;;
74614;SDS011;63121;51.458;-0.110;2023-05-01T06:46:28;7.57;;;2.00;;
74614;SDS011;63121;51.458;-0.110;2023-05-01T06:49:00;8.18;;;2.38;;
74614;SDS011;63121;51.458;-0.110;2023-05-01T06:51:26;13.13;;;2.53;;
74614;SDS011;63121;51.458;-0.110;2023-05-01T06:54:06;9.85;;;2.47;;
74614;SDS011;63121;51.458;-0.110;2023-05-01T06:56:33;10.15;;;2.30;;
74614;SDS011;63121;51.458;-0.110;2023-05-01T06:59:16;9.90;;;2.38;;
74614;SDS011;63121;51.458;-0.110;2023-05-01T07:01:41;11.52;;;2.97;;
74614;SDS011;63121;51.458;-0.110;2023-05-01T07:04:13;10.45;;;2.90;;
74614;SDS011;63121;51.458;-0.110;2023-05-01T07:06:39;10.15;;;2.20;;
74614;SDS011;63121;51.458;-0.110;2023-05-01T07:09:04;14.38;;;2.95;;
74614;SDS011;63121;51.458;-0.110;2023-05-01T07:11:31;10.40;;;2.53;;
74614;SDS011;63121;51.458;-0.110;2023-05-01T07:13:56;10.98;;;2.20;;
74614;SDS011;63121;51.458;-0.110;2023-05-01T07:16:22;11.32;;;2.22;;
74614;SDS011;63121;51.458;-0.110;2023-05-01T07:18:51;9.77;;;2.50;;
74614;SDS011;63121;51.458;-0.110;2023-05-01T07:21:17;9.70;;;2.50;;
74614;SDS011;63121;51.458;-0.110;2023-05-01T07:23:42;9.23;;;2.47;;
74614;SDS011;63121;51.458;-0.110;2023-05-01T07:26:11;8.27;;;2.10;;
74614;SDS011;63121;51.458;-0.110;2023-05-01T07:28:36;10.95;;;2.90;;
74614;SDS011;63121;51.458;-0.110;2023-05-01T07:31:02;9.73;;;2.30;;
74614;SDS011;63121;51.458;-0.110;2023-05-01T07:33:28;9.40;;;2.63;;
74614;SDS011;63121;51.458;-0.110;2023-05-01T07:35:54;10.88;;;2.80;;
74614;SDS011;63121;51.458;-0.110;2023-05-01T07:38:21;10.70;;;2.85;;
74614;SDS011;63121;51.458;-0.110;2023-05-01T07:40:46;10.85;;;2.50;;
74614;SDS011;63121;51.458;-0.110;2023-05-01T07:43:32;8.00;;;2.20;;
74614;SDS011;63121;51.458;-0.110;2023-05-01T07:46:01;8.63;;;2.17;;
74614;SDS011;63121;51.458;-0.110;2023-05-01T07:48:27;9.75;;;2.47;;
74614;SDS011;63121;51.458;-0.110;2023-05-01T07:50:53;10.18;;;2.35;;
74614;SDS011;63121;51.458;-0.110;2023-05-01T07:53:22;8.57;;;2.25;;
74614;SDS011;63121;51.458;-0.110;2023-05-01T07:55:47;10.23;;;2.38;;
74614;SDS011;63121;51.458;-0.110;2023-05-01T07:58:22;7.97;;;2.42;;
74614;SDS011;63121;51.458;-0.110;2023-05-01T08:00:48;11.55;;;2.63;;
74614;SDS011;63121;51.458;-0.110;2023-05-01T08:03:17;10.07;;;2.50;;
74614;SDS011;63121;51.458;-0.110;2023-05-01T08:05:42;9.00;;;2.45;;
74614;SDS011;63121;51.458;-0.110;2023-05-01T08:08:08;12.15;;;2.92;;
74614;SDS011;63121;51.458;-0.110;2023-05-01T08:10:34;8.48;;;2.40;;
74614;SDS011;63121;51.458;-0.110;2023-05-01T08:13:00;8.75;;;2.33;;
74614;SDS011;63121;51.458;-0.110;2023-05-01T08:15:27;9.23;;;2.30;;
74614;SDS011;63121;51.458;-0.110;2023-05-01T08:17:56;11.27;;;2.60;;
74614;SDS011;63121;51.458;-0.110;2023-05-01T08:20:22;10.68;;;2.78;;
74614;SDS011;63121;51.458;-0.110;2023-05-01T08:22:47;11.88;;;2.90;;
74614;SDS011;63121;51.458;-0.110;2023-05-01T08:25:13;9.95;;;2.33;;
74614;SDS011;63121;51.458;-0.110;2023-05-01T08:27:38;7.30;;;2.22;;
74614;SDS011;63121;51.458;-0.110;2023-05-01T08:30:04;10.95;;;2.65;;
74614;SDS011;63121;51.458;-0.110;2023-05-01T08:32:31;9.80;;;2.15;;
74614;SDS011;63121;51.458;-0.110;2023-05-01T08:34:57;7.75;;;2.35;;
74614;SDS011;63121;51.458;-0.110;2023-05-01T08:37:23;11.55;;;2.33;;
74614;SDS011;63121;51.458;-0.110;2023-05-01T08:39:48;14.05;;;3.38;;
74614;SDS011;63121;51.458;-0.110;2023-05-01T08:42:14;10.10;;;2.20;;
74614;SDS011;63121;51.458;-0.110;2023-05-01T08:44:41;12.27;;;2.67;;
74614;SDS011;63121;51.458;-0.110;2023-05-01T08:47:15;8.57;;;2.40;;
74614;SDS011;63121;51.458;-0.110;2023-05-01T08:49:42;9.77;;;2.63;;
74614;SDS011;63121;51.458;-0.110;2023-05-01T08:52:12;9.27;;;2.80;;
74614;SDS011;63121;51.458;-0.110;2023-05-01T08:54:45;9.50;;;2.50;;
74614;SDS011;63121;51.458;-0.110;2023-05-01T08:57:14;7.72;;;2.22;;
74614;SDS011;63121;51.458;-0.110;2023-05-01T08:59:40;9.20;;;2.50;;
74614;SDS011;63121;51.458;-0.110;2023-05-01T09:02:06;12.57;;;2.78;;
74614;SDS011;63121;51.458;-0.110;2023-05-01T09:04:37;9.25;;;2.75;;
74614;SDS011;63121;51.458;-0.110;2023-05-01T09:07:03;8.93;;;2.30;;
74614;SDS011;63121;51.458;-0.110;2023-05-01T09:09:30;9.30;;;2.10;;
74614;SDS011;63121;51.458;-0.110;2023-05-01T09:15:10;10.13;;;2.15;;
74614;SDS011;63121;51.458;-0.110;2023-05-01T09:17:37;9.57;;;2.42;;
74614;SDS011;63121;51.458;-0.110;2023-05-01T09:20:03;9.18;;;2.45;;
74614;SDS011;63121;51.458;-0.110;2023-05-01T09:22:32;9.73;;;2.65;;
74614;SDS011;63121;51.458;-0.110;2023-05-01T09:24:59;9.55;;;2.38;;
74614;SDS011;63121;51.458;-0.110;2023-05-01T09:27:51;9.25;;;2.50;;
74614;SDS011;63121;51.458;-0.110;2023-05-01T09:33:48;11.38;;;2.58;;
74614;SDS011;63121;51.458;-0.110;2023-05-01T09:36:18;9.00;;;2.40;;
74614;SDS011;63121;51.458;-0.110;2023-05-01T09:38:44;8.50;;;2.50;;
74614;SDS011;63121;51.458;-0.110;2023-05-01T09:41:10;12.30;;;2.50;;
74614;SDS011;63121;51.458;-0.110;2023-05-01T09:43:35;8.20;;;2.35;;
74614;SDS011;63121;51.458;-0.110;2023-05-01T09:46:02;10.02;;;2.40;;
74614;SDS011;63121;51.458;-0.110;2023-05-01T09:48:33;9.63;;;2.35;;
74614;SDS011;63121;51.458;-0.110;2023-05-01T09:51:23;7.85;;;1.92;;
74614;SDS011;63121;51.458;-0.110;2023-05-01T09:54:00;8.27;;;2.35;;
74614;SDS011;63121;51.458;-0.110;2023-05-01T09:56:29;8.25;;;2.20;;
74614;SDS011;63121;51.458;-0.110;2023-05-01T09:58:56;11.23;;;2.47;;
74614;SDS011;63121;51.458;-0.110;2023-05-01T10:01:36;9.63;;;2.28;;
74614;SDS011;63121;51.458;-0.110;2023-05-01T10:04:14;7.78;;;2.25;;
74614;SDS011;63121;51.458;-0.110;2023-05-01T10:06:42;7.55;;;2.35;;
74614;SDS011;63121;51.458;-0.110;2023-05-01T10:09:08;9.93;;;2.60;;
74614;SDS011;63121;51.458;-0.110;2023-05-01T10:11:50;6.32;;;2.13;;
74614;SDS011;63121;51.458;-0.110;2023-05-01T10:14:17;11.23;;;2.75;;
74614;SDS011;63121;51.458;-0.110;2023-05-01T10:19:45;13.25;;;2.83;;
74614;SDS011;63121;51.458;-0.110;2023-05-01T10:22:14;10.80;;;2.30;;
74614;SDS011;63121;51.458;-0.110;2023-05-01T10:24:41;7.30;;;2.10;;
74614;SDS011;63121;51.458;-0.110;2023-05-01T10:27:10;8.90;;;2.25;;
74614;SDS011;63121;51.458;-0.110;2023-05-01T10:29:37;8.27;;;2.38;;
74614;SDS011;63121;51.458;-0.110;2023-05-01T10:32:06;8.73;;;2.38;;
74614;SDS011;63121;51.458;-0.110;2023-05-01T10:34:34;8.43;;;2.10;;
74614;SDS011;63121;51.458;-0.110;2023-05-01T10:37:13;6.63;;;2.30;;
74614;SDS011;63121;51.458;-0.110;2023-05-01T10:39:50;6.85;;;2.15;;
74614;SDS011;63121;51.458;-0.110;2023-05-01T10:42:16;10.63;;;2.58;;
74614;SDS011;63121;51.458;-0.110;2023-05-01T10:44:42;8.50;;;2.47;;
74614;SDS011;63121;51.458;-0.110;2023-05-01T10:55:36;6.18;;;1.77;;
74614;SDS011;63121;51.458;-0.110;2023-05-01T10:58:03;8.38;;;1.88;;
74614;SDS011;63121;51.458;-0.110;2023-05-01T11:00:29;6.20;;;1.48;;
74614;SDS011;63121;51.458;-0.110;2023-05-01T11:08:31;6.57;;;2.03;;
74614;SDS011;63121;51.458;-0.110;2023-05-01T11:13:54;6.18;;;1.88;;
74614;SDS011;63121;51.458;-0.110;2023-05-01T11:19:03;6.28;;;1.55;;
74614;SDS011;63121;51.458;-0.110;2023-05-01T11:21:33;4.65;;;1.38;;
74614;SDS011;63121;51.458;-0.110;2023-05-01T11:24:05;5.60;;;1.42;;
74614;SDS011;63121;51.458;-0.110;2023-05-01T11:26:32;3.80;;;1.20;;
74614;SDS011;63121;51.458;-0.110;2023-05-01T11:29:11;4.30;;;1.40;;
74614;SDS011;63121;51.458;-0.110;2023-05-01T11:31:37;4.85;;;1.42;;
74614;SDS011;63121;51.458;-0.110;2023-05-01T11:34:03;6.50;;;1.58;;
74614;SDS011;63121;51.458;-0.110;2023-05-01T11:36:48;3.70;;;1.27;;
74614;SDS011;63121;51.458;-0.110;2023-05-01T11:39:15;4.65;;;1.42;;
74614;SDS011;63121;51.458;-0.110;2023-05-01T11:41:47;5.72;;;1.50;;
74614;SDS011;63121;51.458;-0.110;2023-05-01T11:44:28;5.88;;;1.65;;
74614;SDS011;63121;51.458;-0.110;2023-05-01T11:46:56;7.65;;;1.73;;
74614;SDS011;63121;51.458;-0.110;2023-05-01T11:49:26;4.68;;;1.60;;
74614;SDS011;63121;51.458;-0.110;2023-05-01T11:52:03;6.70;;;1.45;;
74614;SDS011;63121;51.458;-0.110;2023-05-01T11:54:45;7.38;;;1.48;;
74614;SDS011;63121;51.458;-0.110;2023-05-01T11:57:19;6.25;;;1.50;;
74614;SDS011;63121;51.458;-0.110;2023-05-01T11:59:45;6.60;;;1.60;;
74614;SDS011;63121;51.458;-0.110;2023-05-01T12:15:08;4.72;;;1.30;;
74614;SDS011;63121;51.458;-0.110;2023-05-01T12:24:09;6.15;;;1.70;;
74614;SDS011;63121;51.458;-0.110;2023-05-01T12:27:03;5.50;;;1.83;;
74614;SDS011;63121;51.458;-0.110;2023-05-01T12:29:40;5.07;;;1.40;;
74614;SDS011;63121;51.458;-0.110;2023-05-01T12:32:06;4.82;;;1.40;;
74614;SDS011;63121;51.458;-0.110;2023-05-01T12:35:13;2.60;;;0.95;;
74614;SDS011;63121;51.458;-0.110;2023-05-01T12:41:03;4.45;;;1.20;;
74614;SDS011;63121;51.458;-0.110;2023-05-01T12:43:33;3.55;;;1.20;;
74614;SDS011;63121;51.458;-0.110;2023-05-01T12:46:14;2.67;;;1.10;;
74614;SDS011;63121;51.458;-0.110;2023-05-01T12:48:40;3.55;;;1.10;;
74614;SDS011;63121;51.458;-0.110;2023-05-01T12:51:06;2.63;;;1.10;;
74614;SDS011;63121;51.458;-0.110;2023-05-01T12:53:44;2.97;;;1.02;;
74614;SDS011;63121;51.458;-0.110;2023-05-01T12:56:19;3.72;;;1.20;;
74614;SDS011;63121;51.458;-0.110;2023-05-01T12:58:48;4.18;;;1.23;;
74614;SDS011;63121;51.458;-0.110;2023-05-01T13:01:24;2.42;;;1.10;;
74614;SDS011;63121;51.458;-0.110;2023-05-01T13:03:51;2.92;;;1.10;;
74614;SDS011;63121;51.458;-0.110;2023-05-01T13:06:30;4.93;;;1.42;;
74614;SDS011;63121;51.458;-0.110;2023-05-01T13:09:11;4.40;;;1.50;;
74614;SDS011;63121;51.458;-0.110;2023-05-01T13:11:57;4.90;;;1.58;;
74614;SDS011;63121;51.458;-0.110;2023-05-01T13:14:37;5.18;;;1.40;;
74614;SDS011;63121;51.458;-0.110;2023-05-01T13:17:11;4.57;;;1.60;;
74614;SDS011;63121;51.458;-0.110;2023-05-01T13:19:39;5.57;;;1.63;;
74614;SDS011;63121;51.458;-0.110;2023-05-01T13:22:05;3.50;;;1.50;;
74614;SDS011;63121;51.458;-0.110;2023-05-01T13:24:39;4.78;;;1.67;;
74614;SDS011;63121;51.458;-0.110;2023-05-01T13:27:10;6.30;;;1.83;;
74614;SDS011;63121;51.458;-0.110;2023-05-01T13:29:37;4.97;;;1.48;;
74614;SDS011;63121;51.458;-0.110;2023-05-01T13:32:03;4.25;;;1.60;;
74614;SDS011;63121;51.458;-0.110;2023-05-01T13:36:57;6.00;;;1.58;;
74614;SDS011;63121;51.458;-0.110;2023-05-01T13:39:23;4.82;;;1.30;;
74614;SDS011;63121;51.458;-0.110;2023-05-01T13:41:49;3.38;;;1.30;;
74614;SDS011;63121;51.458;-0.110;2023-05-01T13:44:16;4.38;;;1.60;;
74614;SDS011;63121;51.458;-0.110;2023-05-01T13:46:42;3.67;;;1.23;;
74614;SDS011;63121;51.458;-0.110;2023-05-01T13:49:08;4.30;;;1.40;;
74614;SDS011;63121;51.458;-0.110;2023-05-01T13:51:34;4.78;;;1.50;;
74614;SDS011;63121;51.458;-0.110;2023-05-01T13:54:06;5.32;;;1.50;;
74614;SDS011;63121;51.458;-0.110;2023-05-01T13:56:36;6.75;;;1.55;;
74614;SDS011;63121;51.458;-0.110;2023-05-01T13:59:06;5.45;;;1.55;;
74614;SDS011;63121;51.458;-0.110;2023-05-01T14:01:39;5.63;;;1.40;;
74614;SDS011;63121;51.458;-0.110;2023-05-01T14:04:13;3.45;;;1.30;;
74614;SDS011;63121;51.458;-0.110;2023-05-01T14:06:42;4.28;;;1.15;;
74614;SDS011;63121;51.458;-0.110;2023-05-01T14:09:16;4.28;;;1.30;;
74614;SDS011;63121;51.458;-0.110;2023-05-01T14:11:43;2.92;;;1.38;;
74614;SDS011;63121;51.458;-0.110;2023-05-01T14:14:16;4.93;;;1.45;;
74614;SDS011;63121;51.458;-0.110;2023-05-01T14:16:46;6.82;;;1.42;;
74614;SDS011;63121;51.458;-0.110;2023-05-01T14:19:15;11.63;;;4.80;;
74614;SDS011;63121;51.458;-0.110;2023-05-01T14:21:42;6.30;;;1.55;;
74614;SDS011;63121;51.458;-0.110;2023-05-01T14:24:08;6.35;;;1.95;;
74614;SDS011;63121;51.458;-0.110;2023-05-01T14:26:35;5.20;;;1.50;;
74614;SDS011;63121;51.458;-0.110;2023-05-01T14:29:03;3.72;;;1.30;;
74614;SDS011;63121;51.458;-0.110;2023-05-01T14:31:29;4.72;;;1.35;;
74614;SDS011;63121;51.458;-0.110;2023-05-01T14:33:55;4.65;;;1.67;;
74614;SDS011;63121;51.458;-0.110;2023-05-01T14:36:24;6.47;;;2.15;;
74614;SDS011;63121;51.458;-0.110;2023-05-01T14:38:50;6.20;;;1.77;;
74614;SDS011;63121;51.458;-0.110;2023-05-01T14:41:17;7.30;;;2.78;;
74614;SDS011;63121;51.458;-0.110;2023-05-01T14:43:45;3.78;;;1.20;;
74614;SDS011;63121;51.458;-0.110;2023-05-01T14:46:12;3.95;;;1.33;;
74614;SDS011;63121;51.458;-0.110;2023-05-01T14:48:40;3.67;;;1.27;;
74614;SDS011;63121;51.458;-0.110;2023-05-01T14:51:14;3.83;;;1.20;;
74614;SDS011;63121;51.458;-0.110;2023-05-01T14:53:43;3.22;;;1.20;;
74614;SDS011;63121;51.458;-0.110;2023-05-01T14:56:09;2.42;;;1.00;;
74614;SDS011;63121;51.458;-0.110;2023-05-01T14:58:35;6.10;;;1.70;;
74614;SDS011;63121;51.458;-0.110;2023-05-01T15:01:00;3.63;;;1.00;;
74614;SDS011;63121;51.458;-0.110;2023-05-01T15:03:26;3.78;;;1.40;;
74614;SDS011;63121;51.458;-0.110;2023-05-01T15:05:52;4.00;;;1.38;;
74614;SDS011;63121;51.458;-0.110;2023-05-01T15:08:17;3.83;;;1.10;;
74614;SDS011;63121;51.458;-0.110;2023-05-01T15:10:43;3.00;;;1.10;;
74614;SDS011;63121;51.458;-0.110;2023-05-01T15:13:09;3.40;;;1.00;;
74614;SDS011;63121;51.458;-0.110;2023-05-01T15:15:34;2.15;;;0.80;;
74614;SDS011;63121;51.458;-0.110;2023-05-01T15:18:00;3.80;;;1.20;;
74614;SDS011;63121;51.458;-0.110;2023-05-01T15:20:26;8.10;;;2.60;;
74614;SDS011;63121;51.458;-0.110;2023-05-01T15:22:51;11.90;;;3.50;;
74614;SDS011;63121;51.458;-0.110;2023-05-01T15:25:17;4.70;;;1.30;;
74614;SDS011;63121;51.458;-0.110;2023-05-01T15:27:42;3.75;;;1.00;;
74614;SDS011;63121;51.458;-0.110;2023-05-01T15:30:08;3.38;;;1.02;;
74614;SDS011;63121;51.458;-0.110;2023-05-01T15:32:34;3.55;;;1.20;;
74614;SDS011;63121;51.458;-0.110;2023-05-01T15:37:26;3.53;;;1.47;;
74614;SDS011;63121;51.458;-0.110;2023-05-01T15:39:51;3.60;;;1.10;;
74614;SDS011;63121;51.458;-0.110;2023-05-01T15:42:17;4.93;;;1.33;;
74614;SDS011;63121;51.458;-0.110;2023-05-01T15:44:43;5.72;;;1.17;;
74614;SDS011;63121;51.458;-0.110;2023-05-01T15:47:08;3.50;;;1.10;;
74614;SDS011;63121;51.458;-0.110;2023-05-01T15:49:34;3.00;;;1.35;;
74614;SDS011;63121;51.458;-0.110;2023-05-01T15:51:59;2.38;;;0.95;;
74614;SDS011;63121;51.458;-0.110;2023-05-01T15:54:25;5.47;;;1.30;;
74614;SDS011;63121;51.458;-0.110;2023-05-01T15:56:51;5.05;;;1.02;;
74614;SDS011;63121;51.458;-0.110;2023-05-01T15:59:17;4.65;;;1.20;;
74614;SDS011;63121;51.458;-0.110;2023-05-01T16:01:42;3.15;;;1.05;;
74614;SDS011;63121;51.458;-0.110;2023-05-01T16:04:08;3.95;;;1.30;;
74614;SDS011;63121;51.458;-0.110;2023-05-01T16:06:33;2.55;;;1.17;;
74614;SDS011;63121;51.458;-0.110;2023-05-01T16:08:59;4.45;;;1.10;;
74614;SDS011;63121;51.458;-0.110;2023-05-01T16:11:24;3.95;;;1.30;;
74614;SDS011;63121;51.458;-0.110;2023-05-01T16:13:50;4.50;;;1.20;;
74614;SDS011;63121;51.458;-0.110;2023-05-01T16:16:18;2.45;;;1.20;;
74614;SDS011;63121;51.458;-0.110;2023-05-01T16:18:50;2.72;;;1.17;;
74614;SDS011;63121;51.458;-0.110;2023-05-01T16:21:20;4.82;;;1.50;;
74614;SDS011;63121;51.458;-0.110;2023-05-01T16:23:46;3.05;;;1.23;;
74614;SDS011;63121;51.458;-0.110;2023-05-01T16:26:12;5.28;;;1.45;;
74614;SDS011;63121;51.458;-0.110;2023-05-01T16:28:37;2.78;;;1.23;;
74614;SDS011;63121;51.458;-0.110;2023-05-01T16:31:03;4.72;;;1.42;;
74614;SDS011;63121;51.458;-0.110;2023-05-01T16:33:28;6.43;;;1.42;;
74614;SDS011;63121;51.458;-0.110;2023-05-01T16:35:57;3.30;;;1.45;;
74614;SDS011;63121;51.458;-0.110;2023-05-01T16:38:23;7.82;;;1.80;;
74614;SDS011;63121;51.458;-0.110;2023-05-01T16:40:50;5.05;;;1.50;;
74614;SDS011;63121;51.458;-0.110;2023-05-01T16:43:16;6.55;;;1.95;;